Time;durP1;ratioP1;P1;durP2;ratioP2;P2;SDS_P1;SDS_P2;PMS_P1;PMS_P2;Temp;Humidity;BMP_temperature;BMP_pressure;BME280_temperature;BME280_humidity;BME280_pressure;Samples;Min_cycle;Max_cycle;Signal;HPM_P1;HPM_P2
2022/06/16 00:02:14;;;;;;;1.13;0.75;;;21.60;85.80;;;;;;5098358;27;45224;-70
2022/06/16 00:04:46;;;;;;;1.80;1.00;;;21.60;85.40;;;;;;5078765;28;46147;-71
2022/06/16 00:07:13;;;;;;;1.92;1.02;;;21.60;85.60;;;;;;5099263;27;45402;-71
2022/06/16 00:09:40;;;;;;;2.35;1.20;;;21.60;85.40;;;;;;5085318;27;45433;-70
2022/06/16 00:12:08;;;;;;;1.20;0.98;;;21.70;85.20;;;;;;5078683;28;45359;-71
2022/06/16 00:14:36;;;;;;;0.98;0.88;;;21.70;85.60;;;;;;5081317;27;46427;-70
2022/06/16 00:17:03;;;;;;;1.92;1.10;;;21.60;85.80;;;;;;5106960;27;45214;-70
2022/06/16 00:19:31;;;;;;;1.73;1.25;;;21.60;85.30;;;;;;5088682;27;45185;-70
2022/06/16 00:21:57;;;;;;;1.35;0.90;;;21.60;85.40;;;;;;5096451;27;45388;-70
2022/06/16 00:24:27;;;;;;;1.60;0.82;;;21.60;85.60;;;;;;5080888;28;46200;-71
2022/06/16 00:26:55;;;;;;;2.05;1.05;;;21.60;85.80;;;;;;5079893;28;45339;-70
2022/06/16 00:29:22;;;;;;;1.55;0.95;;;21.50;85.30;;;;;;5071839;28;45235;-70
2022/06/16 00:31:49;;;;;;;2.00;1.02;;;21.60;85.60;;;;;;5079947;28;45484;-70
2022/06/16 00:34:16;;;;;;;2.38;0.98;;;21.60;85.60;;;;;;5079277;28;47141;-70
2022/06/16 00:36:44;;;;;;;1.35;1.00;;;21.50;85.50;;;;;;5090445;27;45327;-71
2022/06/16 00:39:11;;;;;;;2.35;1.08;;;21.60;85.60;;;;;;5094010;27;45352;-70
2022/06/16 00:41:37;;;;;;;1.88;1.15;;;21.60;85.10;;;;;;5086720;28;45193;-70
2022/06/16 00:44:15;;;;;;;0.95;0.90;;;21.60;85.30;;;;;;5081349;28;46302;-70
2022/06/16 00:46:42;;;;;;;1.65;1.00;;;21.60;85.40;;;;;;5083482;28;45227;-71
2022/06/16 00:49:12;;;;;;;2.92;1.02;;;21.40;85.20;;;;;;5083308;27;45152;-70
2022/06/16 00:51:42;;;;;;;1.10;1.00;;;21.50;85.10;;;;;;5086985;28;45178;-70
2022/06/16 00:54:15;;;;;;;0.95;0.80;;;21.50;85.60;;;;;;5092556;27;46186;-70
2022/06/16 00:56:42;;;;;;;1.60;1.00;;;21.50;85.50;;;;;;5088569;27;45220;-70
2022/06/16 00:59:10;;;;;;;1.65;0.90;;;21.40;85.60;;;;;;5084481;27;45397;-70
2022/06/16 01:01:40;;;;;;;2.50;1.10;;;21.50;85.40;;;;;;5083383;28;45487;-70
2022/06/16 01:06:53;;;;;;;1.88;1.20;;;21.50;85.40;;;;;;5082194;28;45554;-70
2022/06/16 01:09:24;;;;;;;1.27;1.00;;;21.50;85.40;;;;;;5087716;27;45635;-71
2022/06/16 01:15:01;;;;;;;1.30;0.90;;;21.60;85.40;;;;;;5080113;28;45588;-71
2022/06/16 01:17:39;;;;;;;1.58;0.90;;;21.50;85.10;;;;;;5087442;28;45165;-70
2022/06/16 01:20:16;;;;;;;1.17;0.80;;;21.50;85.00;;;;;;5083589;28;45263;-70
2022/06/16 01:23:17;;;;;;;1.63;1.23;;;21.50;85.10;;;;;;5082523;27;45556;-70
2022/06/16 01:29:11;;;;;;;3.03;1.23;;;21.50;84.90;;;;;;5089291;27;45266;-71
2022/06/16 01:31:44;;;;;;;2.35;1.23;;;21.50;85.00;;;;;;5101843;27;45097;-70
2022/06/16 01:34:18;;;;;;;1.48;0.90;;;21.50;85.00;;;;;;5085783;27;45301;-71
2022/06/16 01:36:51;;;;;;;3.10;1.20;;;21.50;85.10;;;;;;5092133;27;48054;-71
2022/06/16 01:39:25;;;;;;;1.30;1.00;;;21.50;84.90;;;;;;5090140;27;46096;-71
2022/06/16 01:41:58;;;;;;;1.60;0.95;;;21.50;84.70;;;;;;5092025;27;45438;-71
2022/06/16 01:44:32;;;;;;;1.60;0.90;;;21.50;84.80;;;;;;5092028;27;45298;-71
2022/06/16 01:47:03;;;;;;;2.97;1.00;;;21.50;84.90;;;;;;5087784;27;46490;-71
2022/06/16 01:49:34;;;;;;;1.33;1.00;;;21.50;84.70;;;;;;5079712;28;45184;-71
2022/06/16 01:52:07;;;;;;;1.80;1.10;;;21.50;84.90;;;;;;5098404;27;45189;-70
2022/06/16 01:54:37;;;;;;;1.38;1.08;;;21.50;84.80;;;;;;5091570;27;45283;-70
2022/06/16 01:57:10;;;;;;;1.17;0.80;;;21.50;84.90;;;;;;5083233;28;46689;-71
2022/06/16 01:59:44;;;;;;;1.20;0.90;;;21.50;85.20;;;;;;5099322;27;45289;-71
2022/06/16 02:02:14;;;;;;;2.20;1.02;;;21.50;85.00;;;;;;5079298;28;45217;-70
2022/06/16 02:04:47;;;;;;;1.52;0.90;;;21.50;85.00;;;;;;5075044;28;45388;-70
2022/06/16 02:07:19;;;;;;;2.10;0.93;;;21.50;86.00;;;;;;5089601;27;45947;-70
2022/06/16 02:09:49;;;;;;;1.10;0.90;;;21.50;84.90;;;;;;5086730;27;45213;-70
2022/06/16 02:15:07;;;;;;;1.52;0.85;;;21.50;84.90;;;;;;5103537;27;45334;-70
2022/06/16 02:17:34;;;;;;;1.48;1.05;;;21.50;84.90;;;;;;5081493;27;48412;-71
2022/06/16 02:20:00;;;;;;;1.38;1.00;;;21.50;84.90;;;;;;5101860;27;45115;-70
2022/06/16 02:22:27;;;;;;;1.63;1.08;;;21.50;84.90;;;;;;5092871;27;45694;-70
2022/06/16 02:24:54;;;;;;;3.17;0.90;;;21.50;84.90;;;;;;5097204;27;45453;-71
2022/06/16 02:27:21;;;;;;;2.38;1.30;;;21.50;84.90;;;;;;5079608;28;45287;-71
2022/06/16 02:29:48;;;;;;;2.03;1.10;;;21.50;84.90;;;;;;5094555;27;46045;-70
2022/06/16 02:32:31;;;;;;;1.52;1.10;;;21.50;85.00;;;;;;5075988;28;45199;-70
2022/06/16 02:35:08;;;;;;;2.80;0.98;;;21.40;84.70;;;;;;5079483;28;45648;-70
2022/06/16 02:37:48;;;;;;;2.00;1.17;;;21.50;84.90;;;;;;5093709;27;46276;-71
2022/06/16 02:40:30;;;;;;;2.72;1.30;;;21.50;84.60;;;;;;5084817;27;45248;-71
2022/06/16 02:43:08;;;;;;;1.73;1.02;;;21.50;84.60;;;;;;5078379;27;46324;-71
2022/06/16 02:45:43;;;;;;;1.42;1.00;;;21.50;84.50;;;;;;5098657;27;45339;-71
2022/06/16 02:48:16;;;;;;;1.10;0.90;;;21.50;84.70;;;;;;5080026;28;45520;-70
2022/06/16 02:50:52;;;;;;;1.85;1.13;;;21.50;84.60;;;;;;5080301;27;45418;-71
2022/06/16 02:53:29;;;;;;;1.90;1.00;;;21.50;84.40;;;;;;5101076;27;45510;-70
2022/06/16 02:56:05;;;;;;;1.60;1.05;;;21.40;84.30;;;;;;5087800;27;45412;-70
2022/06/16 02:58:33;;;;;;;1.55;0.90;;;21.50;84.60;;;;;;5082521;27;47748;-70
2022/06/16 03:01:02;;;;;;;1.65;1.00;;;21.40;84.50;;;;;;5090497;27;45252;-70
2022/06/16 03:03:33;;;;;;;1.35;0.90;;;21.40;84.50;;;;;;5083530;28;45597;-70
2022/06/16 03:06:00;;;;;;;1.83;1.13;;;21.50;84.60;;;;;;5087342;27;45315;-70
2022/06/16 03:08:31;;;;;;;2.22;1.00;;;21.40;84.40;;;;;;5086764;27;45320;-71
2022/06/16 03:10:59;;;;;;;1.63;1.05;;;21.50;84.20;;;;;;5102005;27;45527;-71
2022/06/16 03:13:28;;;;;;;1.50;1.20;;;21.50;84.40;;;;;;5086079;27;45188;-71
2022/06/16 03:15:57;;;;;;;1.33;1.10;;;21.40;84.10;;;;;;5098518;27;45468;-71
2022/06/16 03:18:25;;;;;;;0.90;0.90;;;21.50;84.20;;;;;;5087970;27;45365;-71
2022/06/16 03:20:54;;;;;;;2.00;1.10;;;21.50;84.00;;;;;;5086401;27;45238;-70
2022/06/16 03:23:21;;;;;;;1.70;1.20;;;21.50;84.00;;;;;;5090404;27;45406;-71
2022/06/16 03:25:48;;;;;;;1.33;1.13;;;21.40;83.80;;;;;;5086251;27;45211;-71
2022/06/16 03:28:15;;;;;;;1.02;0.93;;;21.50;83.80;;;;;;5086060;27;46728;-70
2022/06/16 03:30:42;;;;;;;2.08;1.25;;;21.50;83.80;;;;;;5083392;27;45096;-71
2022/06/16 03:33:11;;;;;;;1.80;1.10;;;21.40;83.30;;;;;;5082721;28;45365;-71
2022/06/16 03:35:39;;;;;;;1.13;0.80;;;21.40;83.70;;;;;;5076270;28;45454;-71
2022/06/16 03:38:09;;;;;;;1.10;0.93;;;21.50;83.60;;;;;;5078728;28;47833;-70
2022/06/16 03:40:35;;;;;;;1.13;0.93;;;21.40;83.30;;;;;;5085155;28;45437;-70
2022/06/16 03:43:05;;;;;;;2.00;1.20;;;21.40;83.30;;;;;;5073143;28;45430;-71
2022/06/16 03:45:32;;;;;;;1.58;1.10;;;21.40;83.40;;;;;;5079073;28;45149;-70
2022/06/16 03:47:59;;;;;;;3.78;1.45;;;21.40;83.30;;;;;;5078558;28;47059;-71
2022/06/16 03:50:26;;;;;;;1.63;1.17;;;21.40;83.50;;;;;;5080245;28;45772;-71
2022/06/16 03:52:52;;;;;;;1.70;1.20;;;21.40;83.30;;;;;;5076609;28;45240;-71
2022/06/16 03:55:20;;;;;;;1.88;1.00;;;21.40;83.40;;;;;;5079910;28;45338;-71
2022/06/16 03:57:47;;;;;;;1.48;0.90;;;21.40;83.10;;;;;;5077516;28;45511;-70
2022/06/16 04:00:16;;;;;;;1.85;1.20;;;21.40;82.90;;;;;;5080521;28;45323;-71
2022/06/16 04:02:42;;;;;;;1.45;0.82;;;21.40;82.90;;;;;;5077499;28;45328;-71
2022/06/16 04:05:10;;;;;;;1.13;1.00;;;21.40;83.00;;;;;;5076812;28;45372;-70
2022/06/16 04:07:37;;;;;;;1.52;0.88;;;21.50;83.00;;;;;;5074576;28;46171;-70
2022/06/16 04:10:05;;;;;;;2.65;1.02;;;21.40;83.00;;;;;;5077266;28;45184;-70
2022/06/16 04:12:33;;;;;;;1.88;0.90;;;21.40;82.60;;;;;;5079155;28;45174;-71
2022/06/16 04:15:00;;;;;;;1.67;1.00;;;21.40;82.80;;;;;;5094819;27;45201;-70
2022/06/16 04:17:27;;;;;;;1.95;1.10;;;21.40;82.30;;;;;;5292199;22;47713;-70
2022/06/16 04:22:38;;;;;;;0.95;0.85;;;21.40;82.10;;;;;;5073645;28;45381;-71
2022/06/16 04:25:05;;;;;;;0.95;0.80;;;21.40;82.10;;;;;;5085542;28;45500;-70
2022/06/16 04:27:34;;;;;;;1.10;0.90;;;21.40;81.90;;;;;;5080475;28;46013;-71
2022/06/16 04:30:01;;;;;;;1.40;0.70;;;21.40;81.80;;;;;;5088815;27;45171;-70
2022/06/16 04:32:28;;;;;;;1.50;0.90;;;21.40;82.20;;;;;;5091913;27;45132;-70
2022/06/16 04:34:55;;;;;;;1.45;0.85;;;21.40;81.80;;;;;;5084580;27;45147;-71
2022/06/16 04:37:21;;;;;;;2.17;0.90;;;21.40;81.50;;;;;;5085261;28;46430;-70
2022/06/16 04:39:49;;;;;;;1.33;1.00;;;21.50;81.80;;;;;;5083408;28;45361;-71
2022/06/16 04:42:15;;;;;;;1.20;0.85;;;21.40;81.80;;;;;;5085167;28;45295;-70
2022/06/16 04:44:44;;;;;;;2.50;0.98;;;21.30;81.60;;;;;;5083918;28;45328;-70
2022/06/16 04:47:11;;;;;;;1.30;0.80;;;21.70;81.90;;;;;;5075328;28;48131;-71
2022/06/16 04:49:38;;;;;;;1.98;0.95;;;21.40;81.70;;;;;;5083231;28;45339;-71
2022/06/16 04:52:06;;;;;;;1.92;0.82;;;21.40;81.60;;;;;;5100763;27;45361;-71
2022/06/16 04:54:33;;;;;;;1.40;0.90;;;21.40;81.60;;;;;;5089448;27;45484;-70
2022/06/16 04:57:00;;;;;;;2.08;0.90;;;21.50;81.70;;;;;;5085110;28;46162;-71
2022/06/16 04:59:26;;;;;;;1.20;0.90;;;21.40;81.50;;;;;;5080873;28;45422;-71
2022/06/16 05:01:55;;;;;;;2.22;0.73;;;21.40;81.40;;;;;;5083839;28;45373;-71
2022/06/16 05:04:22;;;;;;;3.42;0.88;;;21.40;81.20;;;;;;5082392;28;45264;-71
2022/06/16 05:06:49;;;;;;;1.42;0.85;;;21.40;81.30;;;;;;5091573;27;46302;-71
2022/06/16 05:09:16;;;;;;;1.42;0.90;;;21.40;81.40;;;;;;5087517;27;45323;-70
2022/06/16 05:11:43;;;;;;;1.23;0.80;;;21.40;81.40;;;;;;5085362;28;45330;-71
2022/06/16 05:14:10;;;;;;;1.83;0.95;;;21.40;81.40;;;;;;5082612;28;45231;-71
2022/06/16 05:16:37;;;;;;;2.80;1.10;;;21.40;81.40;;;;;;5087395;28;46210;-71
2022/06/16 05:19:05;;;;;;;1.58;0.90;;;21.40;81.20;;;;;;5084277;28;45244;-71
2022/06/16 05:21:32;;;;;;;2.38;1.10;;;21.40;81.20;;;;;;5083349;28;45121;-71
2022/06/16 05:23:58;;;;;;;0.75;0.63;;;21.40;81.40;;;;;;5081820;28;45204;-70
2022/06/16 05:26:25;;;;;;;1.63;0.82;;;21.40;81.20;;;;;;5084425;28;46956;-70
2022/06/16 05:28:52;;;;;;;1.00;0.75;;;21.40;81.20;;;;;;5090085;27;45355;-70
2022/06/16 05:31:19;;;;;;;1.25;0.90;;;21.40;81.00;;;;;;5092607;27;45674;-70
2022/06/16 05:33:46;;;;;;;1.10;0.65;;;21.40;81.10;;;;;;5088923;27;45371;-70
2022/06/16 05:36:14;;;;;;;1.75;1.00;;;21.40;80.90;;;;;;5084719;28;47452;-71
2022/06/16 05:38:41;;;;;;;2.22;1.00;;;21.40;80.90;;;;;;5086075;28;45607;-71
2022/06/16 05:41:10;;;;;;;1.73;0.90;;;21.40;81.10;;;;;;5083451;28;45308;-70
2022/06/16 05:43:37;;;;;;;2.42;1.13;;;21.40;80.80;;;;;;5084272;28;45523;-70
2022/06/16 05:46:05;;;;;;;2.80;1.00;;;21.40;81.00;;;;;;5081035;28;45424;-70
2022/06/16 05:48:33;;;;;;;1.15;0.70;;;21.40;80.90;;;;;;5083863;28;45414;-71
2022/06/16 05:51:04;;;;;;;1.70;1.00;;;21.40;80.90;;;;;;5084050;28;45347;-71
2022/06/16 05:53:32;;;;;;;1.20;0.80;;;21.40;81.10;;;;;;5087329;27;45410;-71
2022/06/16 05:55:59;;;;;;;1.33;0.75;;;21.40;80.70;;;;;;5079311;27;46308;-71
2022/06/16 05:58:26;;;;;;;1.50;0.82;;;21.40;80.80;;;;;;5085522;28;45556;-71
2022/06/16 06:00:53;;;;;;;1.45;1.00;;;21.40;80.70;;;;;;5083814;27;45272;-71
2022/06/16 06:03:19;;;;;;;1.10;0.63;;;21.40;80.70;;;;;;5098470;27;45393;-71
2022/06/16 06:05:46;;;;;;;2.08;0.82;;;21.40;80.80;;;;;;5083089;28;47098;-71
2022/06/16 06:16:36;;;;;;;2.22;0.95;;;21.40;80.70;;;;;;5075354;28;46098;-71
2022/06/16 06:19:23;;;;;;;1.85;0.88;;;21.40;80.60;;;;;;5081443;28;45326;-70
2022/06/16 06:22:00;;;;;;;1.20;0.80;;;21.50;80.60;;;;;;5076994;28;45275;-71
2022/06/16 06:24:28;;;;;;;1.52;0.93;;;21.40;80.30;;;;;;5076111;28;45477;-70
2022/06/16 06:26:57;;;;;;;1.13;0.80;;;21.40;80.00;;;;;;5077384;28;45252;-71
2022/06/16 06:29:24;;;;;;;1.67;0.98;;;21.40;80.00;;;;;;5086868;27;45326;-71
2022/06/16 06:31:50;;;;;;;1.38;0.88;;;21.40;80.20;;;;;;5091075;27;45750;-70
2022/06/16 06:34:17;;;;;;;0.95;0.80;;;21.40;80.10;;;;;;5084808;27;45298;-71
2022/06/16 06:36:44;;;;;;;0.82;0.60;;;21.50;79.90;;;;;;5080336;28;45179;-71
2022/06/16 06:39:12;;;;;;;0.60;0.60;;;21.40;80.00;;;;;;5083384;28;45329;-71
2022/06/16 06:41:39;;;;;;;1.50;0.75;;;21.40;80.10;;;;;;5086052;28;45545;-70
2022/06/16 06:44:07;;;;;;;1.90;0.90;;;21.40;79.80;;;;;;5080549;28;45449;-71
2022/06/16 06:46:34;;;;;;;1.70;0.82;;;21.50;79.60;;;;;;5079352;27;46590;-70
2022/06/16 06:49:00;;;;;;;1.38;0.75;;;21.40;79.80;;;;;;5083399;27;45346;-71
2022/06/16 06:51:27;;;;;;;0.82;0.70;;;21.40;80.10;;;;;;5093765;27;45274;-71
2022/06/16 06:53:54;;;;;;;0.52;0.52;;;21.40;80.10;;;;;;5076539;28;45407;-70
2022/06/16 06:56:21;;;;;;;2.10;0.90;;;21.40;79.80;;;;;;5078407;28;47504;-71
2022/06/16 06:58:48;;;;;;;1.42;0.90;;;21.40;79.80;;;;;;5085066;28;45236;-70
2022/06/16 07:01:16;;;;;;;0.63;0.60;;;21.40;79.80;;;;;;5084038;28;45118;-70
2022/06/16 07:03:43;;;;;;;2.40;0.90;;;21.40;79.90;;;;;;5082125;27;45476;-70
2022/06/16 07:06:10;;;;;;;1.95;0.70;;;21.40;79.90;;;;;;5085311;27;46551;-70
2022/06/16 07:08:36;;;;;;;0.90;0.80;;;21.40;79.80;;;;;;5084016;28;45148;-71
2022/06/16 07:11:03;;;;;;;0.80;0.68;;;21.40;79.80;;;;;;5082266;28;45217;-70
2022/06/16 07:13:30;;;;;;;1.15;0.80;;;21.40;79.70;;;;;;5076729;28;45534;-70
2022/06/16 07:15:57;;;;;;;1.95;0.95;;;21.40;79.80;;;;;;5068039;28;46280;-71
2022/06/16 07:18:25;;;;;;;1.15;0.75;;;21.40;79.60;;;;;;5079925;28;45684;-70
2022/06/16 07:20:52;;;;;;;0.82;0.60;;;21.40;79.70;;;;;;5080535;28;45107;-70
2022/06/16 07:23:20;;;;;;;1.63;0.90;;;21.40;79.60;;;;;;5079725;28;45340;-70
2022/06/16 07:25:47;;;;;;;0.70;0.70;;;21.40;79.70;;;;;;5084971;28;47084;-71
2022/06/16 07:28:14;;;;;;;1.15;0.70;;;21.50;79.80;;;;;;5083854;27;45402;-71
2022/06/16 07:30:42;;;;;;;1.63;0.80;;;21.40;79.60;;;;;;5089158;27;45409;-71
2022/06/16 07:33:09;;;;;;;0.90;0.63;;;21.40;79.70;;;;;;5091934;27;45415;-70
2022/06/16 07:35:40;;;;;;;1.50;1.00;;;21.50;79.80;;;;;;5074191;28;47917;-71
2022/06/16 07:38:07;;;;;;;2.10;0.90;;;21.50;79.70;;;;;;5081206;28;45285;-71
2022/06/16 07:40:33;;;;;;;0.90;0.70;;;21.50;79.60;;;;;;5082292;28;45671;-70
2022/06/16 07:43:00;;;;;;;1.65;1.00;;;21.50;79.70;;;;;;5075505;28;45318;-71
2022/06/16 07:45:30;;;;;;;1.75;1.00;;;21.50;79.60;;;;;;5078838;27;45349;-70
2022/06/16 07:48:00;;;;;;;1.20;0.75;;;21.50;79.60;;;;;;5088840;27;45268;-71
2022/06/16 07:50:28;;;;;;;1.92;1.15;;;21.50;79.60;;;;;;5081884;27;45822;-71
2022/06/16 07:52:56;;;;;;;2.05;1.30;;;21.50;79.60;;;;;;5083197;28;45390;-71
2022/06/16 07:55:23;;;;;;;2.92;1.25;;;21.50;79.60;;;;;;5075957;28;45213;-71
2022/06/16 07:57:51;;;;;;;3.17;1.30;;;21.50;79.60;;;;;;5081052;27;45149;-71
2022/06/16 08:00:21;;;;;;;3.78;1.42;;;21.50;79.60;;;;;;5080576;28;45352;-71
2022/06/16 08:02:48;;;;;;;2.72;1.20;;;21.50;79.60;;;;;;5083920;28;45505;-71
2022/06/16 08:05:15;;;;;;;2.47;1.02;;;21.40;79.80;;;;;;5083777;27;45335;-71
2022/06/16 08:07:43;;;;;;;1.55;1.00;;;21.50;79.80;;;;;;5084224;27;45349;-70
2022/06/16 08:10:15;;;;;;;1.75;1.15;;;21.60;80.00;;;;;;5091315;27;45271;-71
2022/06/16 08:12:42;;;;;;;2.53;1.20;;;21.50;80.20;;;;;;5082639;28;45374;-71
2022/06/16 08:15:09;;;;;;;1.52;0.95;;;21.50;80.00;;;;;;5083518;28;45428;-71
2022/06/16 08:17:39;;;;;;;2.55;1.08;;;21.50;80.10;;;;;;5086781;28;45199;-70
2022/06/16 08:20:08;;;;;;;2.45;1.10;;;21.50;80.00;;;;;;5084906;28;45199;-70
2022/06/16 08:22:35;;;;;;;2.35;1.30;;;21.60;80.20;;;;;;5087220;28;45505;-71
2022/06/16 08:25:02;;;;;;;1.80;1.00;;;21.40;80.10;;;;;;5081685;28;47045;-71
2022/06/16 08:27:34;;;;;;;1.73;0.80;;;21.70;80.50;;;;;;5086365;28;45316;-71
2022/06/16 08:30:02;;;;;;;2.35;1.13;;;21.60;80.20;;;;;;5079338;27;45325;-71
2022/06/16 08:32:29;;;;;;;1.95;1.00;;;21.50;80.30;;;;;;5083736;27;45227;-71
2022/06/16 08:34:56;;;;;;;2.08;1.35;;;21.70;80.10;;;;;;5079496;28;45193;-71
2022/06/16 08:37:24;;;;;;;1.85;1.10;;;21.50;79.90;;;;;;5078867;28;45393;-71
2022/06/16 08:39:50;;;;;;;2.45;1.20;;;21.60;80.00;;;;;;5081858;28;45726;-71
2022/06/16 08:42:24;;;;;;;1.98;1.02;;;21.60;79.70;;;;;;5079528;28;45368;-70
2022/06/16 08:45:01;;;;;;;2.03;1.17;;;21.80;79.90;;;;;;5082633;28;46372;-71
2022/06/16 08:47:38;;;;;;;1.48;1.10;;;21.60;79.60;;;;;;5079662;28;45366;-71
2022/06/16 08:50:14;;;;;;;2.22;1.10;;;21.60;79.60;;;;;;5082263;28;45283;-71
2022/06/16 08:52:47;;;;;;;2.03;1.08;;;21.60;79.70;;;;;;5078101;28;46105;-71
2022/06/16 08:55:21;;;;;;;2.65;1.38;;;21.60;79.60;;;;;;5085963;27;45289;-70
2022/06/16 08:57:57;;;;;;;2.15;1.10;;;21.60;79.60;;;;;;5086085;27;45616;-71
2022/06/16 09:00:31;;;;;;;1.30;0.90;;;21.60;79.70;;;;;;5085613;27;45112;-71
2022/06/16 09:03:07;;;;;;;3.13;1.10;;;21.60;79.60;;;;;;5079315;28;45501;-70
2022/06/16 09:05:45;;;;;;;1.27;0.93;;;21.60;80.30;;;;;;5080213;28;46204;-70
2022/06/16 09:08:21;;;;;;;2.15;0.82;;;21.60;80.10;;;;;;5079595;28;45827;-71
2022/06/16 09:10:56;;;;;;;2.25;1.02;;;21.60;79.80;;;;;;5076574;28;46838;-71
2022/06/16 09:13:45;;;;;;;2.10;1.08;;;21.60;79.60;;;;;;5081304;28;45836;-70
2022/06/16 09:16:28;;;;;;;2.00;1.10;;;21.50;79.60;;;;;;5077553;28;47339;-71
2022/06/16 09:19:27;;;;;;;2.20;1.20;;;21.60;79.60;;;;;;5077746;27;45477;-71
2022/06/16 09:22:08;;;;;;;1.80;1.00;;;21.60;79.60;;;;;;5074657;27;45442;-70
2022/06/16 09:24:57;;;;;;;3.17;1.40;;;21.60;80.70;;;;;;5086874;27;45301;-71
2022/06/16 09:27:29;;;;;;;1.55;0.95;;;21.60;78.90;;;;;;5082495;27;47378;-71
2022/06/16 09:30:01;;;;;;;1.83;0.90;;;21.60;79.20;;;;;;5084045;27;45356;-71
2022/06/16 09:32:35;;;;;;;1.67;1.05;;;21.60;78.90;;;;;;5083426;27;45291;-71
2022/06/16 09:35:09;;;;;;;3.05;1.23;;;21.60;78.80;;;;;;5081792;27;46164;-70
2022/06/16 09:37:45;;;;;;;1.52;0.88;;;21.70;78.70;;;;;;5081488;27;47602;-71
2022/06/16 09:40:16;;;;;;;2.28;0.95;;;21.70;78.60;;;;;;5082171;27;45442;-71
2022/06/16 09:42:47;;;;;;;3.10;0.93;;;21.70;78.70;;;;;;5085704;27;45322;-71
2022/06/16 09:45:19;;;;;;;1.92;0.77;;;21.70;78.70;;;;;;5076147;27;45248;-70
2022/06/16 09:47:54;;;;;;;1.23;0.88;;;21.70;78.70;;;;;;5083788;27;46153;-70
2022/06/16 09:50:30;;;;;;;1.80;1.10;;;21.70;78.50;;;;;;5089211;27;45366;-70
2022/06/16 09:53:04;;;;;;;1.40;0.88;;;21.70;78.50;;;;;;5086362;27;45366;-70
2022/06/16 09:55:35;;;;;;;1.40;0.70;;;21.80;78.90;;;;;;5082003;27;45291;-71
2022/06/16 09:58:08;;;;;;;1.38;0.88;;;21.70;78.60;;;;;;5082342;27;46182;-71
2022/06/16 10:00:35;;;;;;;1.15;0.80;;;21.70;78.70;;;;;;5080914;27;45366;-71
2022/06/16 10:03:16;;;;;;;1.05;0.85;;;21.60;78.70;;;;;;5083257;27;45398;-71
2022/06/16 10:05:57;;;;;;;4.68;1.63;;;22.40;79.10;;;;;;5087119;27;45307;-68
2022/06/16 10:08:32;;;;;;;4.10;1.38;;;21.00;60.80;;;;;;5087281;27;45485;-68
2022/06/16 10:11:08;;;;;;;9.07;1.83;;;20.60;58.20;;;;;;5085152;27;45400;-68
2022/06/16 10:13:42;;;;;;;3.90;1.30;;;20.40;57.00;;;;;;5075491;28;45151;-68
2022/06/16 10:16:13;;;;;;;7.00;1.92;;;20.20;56.90;;;;;;5079654;28;45585;-68
2022/06/16 10:18:42;;;;;;;6.93;1.63;;;20.10;55.30;;;;;;5081790;27;45760;-68
2022/06/16 10:21:11;;;;;;;3.67;1.40;;;20.40;58.00;;;;;;5081749;27;45194;-68
2022/06/16 10:23:43;;;;;;;4.88;1.60;;;20.40;54.60;;;;;;5084100;27;45326;-68
2022/06/16 10:26:10;;;;;;;6.53;1.40;;;20.40;51.10;;;;;;5082336;27;45170;-68
2022/06/16 10:28:44;;;;;;;3.10;1.23;;;20.30;51.20;;;;;;5080041;27;45490;-68
2022/06/16 10:31:17;;;;;;;5.00;1.05;;;20.30;56.50;;;;;;5080847;28;46410;-68
2022/06/16 10:33:57;;;;;;;5.32;1.35;;;20.40;53.70;;;;;;5083636;28;45327;-68
2022/06/16 10:36:26;;;;;;;4.45;1.33;;;20.60;53.00;;;;;;5081098;27;45497;-68
2022/06/16 10:39:08;;;;;;;7.53;1.50;;;20.70;51.00;;;;;;5088218;27;46229;-68
2022/06/16 10:41:41;;;;;;;5.78;1.55;;;20.40;51.70;;;;;;5082020;28;45419;-68
2022/06/16 10:44:13;;;;;;;6.37;1.70;;;20.50;53.90;;;;;;5077022;28;45164;-67
2022/06/16 10:46:48;;;;;;;6.57;1.50;;;20.60;52.00;;;;;;5078586;28;45367;-68
2022/06/16 10:49:20;;;;;;;4.65;1.70;;;20.40;52.10;;;;;;5075581;28;45236;-68
2022/06/16 10:51:54;;;;;;;5.30;1.80;;;20.40;54.60;;;;;;5080388;27;45278;-69
2022/06/16 10:54:27;;;;;;;4.65;2.10;;;20.60;51.80;;;;;;5080234;27;45322;-69
2022/06/16 10:57:06;;;;;;;8.52;2.33;;;20.60;52.40;;;;;;5087672;27;45398;-69
2022/06/16 10:59:39;;;;;;;8.88;2.08;;;20.50;53.00;;;;;;5082144;27;47099;-69
2022/06/16 11:02:20;;;;;;;8.38;2.25;;;20.60;53.50;;;;;;5084174;27;45384;-69
2022/06/16 11:04:55;;;;;;;5.85;1.58;;;20.70;52.40;;;;;;5079246;27;45440;-69
2022/06/16 11:07:24;;;;;;;6.82;2.20;;;20.70;52.70;;;;;;5082928;27;45281;-69
2022/06/16 11:09:52;;;;;;;4.30;2.30;;;20.60;52.80;;;;;;5080249;27;45497;-69
2022/06/16 11:12:23;;;;;;;6.85;2.78;;;20.60;52.20;;;;;;5084152;27;45566;-69
2022/06/16 11:14:54;;;;;;;9.52;2.50;;;20.60;52.10;;;;;;5087427;27;45322;-69
2022/06/16 11:17:25;;;;;;;5.00;2.40;;;20.70;52.40;;;;;;5082559;27;45877;-69
2022/06/16 11:20:00;;;;;;;8.00;1.85;;;20.90;52.00;;;;;;5081066;27;47117;-69
2022/06/16 11:22:31;;;;;;;11.23;2.35;;;20.90;52.80;;;;;;5082002;27;46057;-69
2022/06/16 11:25:06;;;;;;;7.07;1.95;;;20.90;52.40;;;;;;5086808;27;45357;-69
2022/06/16 11:27:41;;;;;;;6.55;2.28;;;21.20;52.50;;;;;;5076193;27;45323;-69
2022/06/16 11:30:35;;;;;;;6.25;2.38;;;21.10;52.70;;;;;;5078114;27;45272;-70
2022/06/16 11:33:02;;;;;;;5.25;1.85;;;21.20;51.80;;;;;;5077379;27;45927;-70
2022/06/16 11:35:38;;;;;;;5.03;2.17;;;21.20;54.60;;;;;;5081668;27;45284;-69
2022/06/16 11:38:12;;;;;;;7.57;3.10;;;21.20;51.10;;;;;;5088162;27;45435;-69
2022/06/16 11:40:45;;;;;;;7.30;2.33;;;21.30;51.10;;;;;;5082469;28;45564;-69
2022/06/16 11:43:45;;;;;;;5.13;2.45;;;21.20;51.90;;;;;;5079475;28;45410;-69
2022/06/16 11:46:21;;;;;;;5.97;2.55;;;21.40;52.30;;;;;;5072426;28;45291;-69
2022/06/16 11:49:01;;;;;;;6.18;1.88;;;21.40;52.60;;;;;;5081686;28;45268;-69
2022/06/16 11:51:37;;;;;;;8.13;2.05;;;21.50;53.70;;;;;;5080692;27;46622;-70
2022/06/16 11:54:14;;;;;;;5.03;2.13;;;21.40;51.80;;;;;;5091648;27;45238;-70
2022/06/16 11:56:46;;;;;;;7.28;2.45;;;21.30;52.50;;;;;;5085040;27;45586;-69
2022/06/16 11:59:27;;;;;;;7.05;2.10;;;21.40;52.10;;;;;;5086240;27;45208;-69
2022/06/16 12:01:58;;;;;;;7.47;2.20;;;21.60;51.10;;;;;;5090679;27;46559;-69
2022/06/16 12:04:39;;;;;;;4.97;2.00;;;21.60;51.20;;;;;;5088811;27;45910;-69
2022/06/16 12:07:32;;;;;;;7.82;2.53;;;21.50;51.90;;;;;;5082345;28;45303;-70
2022/06/16 12:10:07;;;;;;;2.92;1.75;;;21.40;55.60;;;;;;5079331;28;45188;-70
2022/06/16 12:12:38;;;;;;;6.82;2.08;;;21.50;52.30;;;;;;5079125;28;45236;-69
2022/06/16 12:15:21;;;;;;;4.90;2.00;;;21.70;54.30;;;;;;5082631;27;45260;-69
2022/06/16 12:17:57;;;;;;;6.40;2.50;;;21.70;52.90;;;;;;5083073;27;45375;-69
2022/06/16 12:20:33;;;;;;;6.53;2.90;;;21.60;51.30;;;;;;5090959;27;46199;-69
2022/06/16 12:23:07;;;;;;;7.97;2.70;;;21.60;51.40;;;;;;5082047;28;45176;-70
2022/06/16 12:25:41;;;;;;;6.25;2.20;;;21.80;51.20;;;;;;5079784;27;45497;-70
2022/06/16 12:28:18;;;;;;;7.35;2.22;;;21.80;51.10;;;;;;5084611;27;45183;-70
2022/06/16 12:30:53;;;;;;;6.93;1.90;;;21.60;51.40;;;;;;5079570;28;45498;-70
2022/06/16 12:33:30;;;;;;;11.48;2.13;;;21.60;51.10;;;;;;5076649;28;45991;-70
2022/06/16 12:36:05;;;;;;;3.88;1.45;;;21.60;50.60;;;;;;5081664;28;45401;-70
2022/06/16 12:38:37;;;;;;;5.30;1.70;;;21.50;53.70;;;;;;5081790;27;45560;-70
2022/06/16 12:41:07;;;;;;;4.80;1.77;;;21.40;54.40;;;;;;5083678;27;45542;-70
2022/06/16 12:43:37;;;;;;;4.70;1.80;;;21.40;51.40;;;;;;5078382;28;46665;-70
2022/06/16 12:46:08;;;;;;;7.75;2.20;;;21.80;51.20;;;;;;5076406;27;45451;-69
2022/06/16 12:48:43;;;;;;;6.63;2.15;;;21.80;53.10;;;;;;5087014;27;45203;-69
2022/06/16 12:51:14;;;;;;;7.78;2.00;;;22.00;51.00;;;;;;5078970;28;45196;-70
2022/06/16 12:53:49;;;;;;;8.13;2.40;;;22.20;49.60;;;;;;5086504;28;48134;-69
2022/06/16 12:56:21;;;;;;;7.75;2.25;;;22.10;51.40;;;;;;5082633;28;45267;-67
2022/06/16 12:58:51;;;;;;;5.40;2.00;;;22.10;51.40;;;;;;5080547;28;45437;-69
2022/06/16 13:01:19;;;;;;;7.95;2.15;;;21.80;58.10;;;;;;5082052;28;45305;-68
2022/06/16 13:03:53;;;;;;;5.85;1.98;;;21.70;53.90;;;;;;5084696;28;46586;-69
2022/06/16 13:06:22;;;;;;;4.35;1.65;;;21.70;54.60;;;;;;5087697;27;45335;-69
2022/06/16 13:08:55;;;;;;;6.00;1.67;;;21.50;55.70;;;;;;5090133;27;45217;-69
2022/06/16 13:11:27;;;;;;;4.93;1.83;;;21.40;60.70;;;;;;5085590;28;45489;-69
2022/06/16 13:13:58;;;;;;;4.30;1.65;;;21.80;50.90;;;;;;5081977;28;46215;-69
2022/06/16 13:16:29;;;;;;;4.15;1.60;;;21.90;51.30;;;;;;5084967;28;45186;-69
2022/06/16 13:18:59;;;;;;;6.07;1.65;;;21.80;49.50;;;;;;5079049;28;46468;-68
2022/06/16 13:21:31;;;;;;;5.20;1.60;;;22.30;50.70;;;;;;5075280;28;45994;-69
2022/06/16 13:24:12;;;;;;;3.83;1.75;;;22.90;48.20;;;;;;5092026;27;45331;-69
2022/06/16 13:26:42;;;;;;;4.13;1.50;;;22.90;48.40;;;;;;5081349;28;45325;-69
2022/06/16 13:29:15;;;;;;;4.05;1.70;;;22.50;47.90;;;;;;5085226;28;45240;-69
2022/06/16 13:31:59;;;;;;;3.92;1.52;;;22.70;49.20;;;;;;5082307;27;46434;-69